Parkville, Maryland
Current Conditions -  °F | °C
As of 9:55 AM on Monday 24 Nov 2014 (Local Time) from KMTN Reporting Station
Scattered Clouds Scattered Clouds  
Wind Chill: 63°   Ceiling: Unl
Heat Index: 63°   Visibility: 10mi
Dew Point: 61°   Wind: 9mph
Humidity: 94%   Direction: 150°SSE
Pressure: 29.7"   Gusts: NA
Location:  39.38°N, 76.54°W
Report Text: KMTN 241455Z 15008KT 10SM SCT040 17/16 A2970
Loading
Personal Weather Stations






























Interactive Weather Map New forecast layout! Learn more

10-Day Weather Forecast

Advertisements
Track Severe Weather on mobile